Time;durP1;ratioP1;P1;durP2;ratioP2;P2;SDS_P1;SDS_P2;PMS_P1;PMS_P2;Temp;Humidity;BMP_temperature;BMP_pressure;BME280_temperature;BME280_humidity;BME280_pressure;Samples;Min_cycle;Max_cycle;Signal;HPM_P1;HPM_P2
2021/04/03 00:00:17;;;;;;;7;2.77;;;5.7;99.9;;;;;;;;;
2021/04/03 00:01:01;;;;;;;7;2.77;;;5.7;99.9;;;;;;;;;
2021/04/03 00:02:01;;;;;;;8.23;2.3;;;5.7;99.9;;;;;;;;;
2021/04/03 00:02:30;;;;;;;11.67;2.8;;;5.8;99.9;;;;;;;;;
2021/04/03 00:03:01;;;;;;;11.67;2.8;;;5.8;99.9;;;;;;;;;
2021/04/03 00:03:16;;;;;;;9.57;2.77;;;5.8;99.9;;;;;;;;;
2021/04/03 00:04:01;;;;;;;9.57;2.77;;;5.8;99.9;;;;;;;;;
2021/04/03 00:04:17;;;;;;;8.53;2.57;;;5.9;99.9;;;;;;;;;
2021/04/03 00:04:43;;;;;;;8.53;2.57;;;5.9;99.9;;;;;;;;;
2021/04/03 00:05:01;;;;;;;8.53;2.57;;;5.9;99.9;;;;;;;;;
2021/04/03 00:05:14;;;;;;;8.53;2.57;;;5.9;99.9;;;;;;;;;
2021/04/03 00:05:29;;;;;;;5.67;2.57;;;5.9;99.9;;;;;;;;;
2021/04/03 00:06:01;;;;;;;5.67;2.57;;;5.9;99.9;;;;;;;;;
2021/04/03 00:06:15;;;;;;;5.67;2.57;;;5.9;99.9;;;;;;;;;
2021/04/03 00:06:30;;;;;;;6.93;2.03;;;5.9;99.9;;;;;;;;;
2021/04/03 00:06:56;;;;;;;6.93;2.03;;;5.9;99.9;;;;;;;;;
2021/04/03 00:07:01;;;;;;;6.93;2.03;;;5.9;99.9;;;;;;;;;
2021/04/03 00:07:17;;;;;;;10.93;2.8;;;6;99.9;;;;;;;;;
2021/04/03 00:07:27;;;;;;;10.93;2.8;;;6;99.9;;;;;;;;;
2021/04/03 00:07:42;;;;;;;10.93;2.8;;;6;99.9;;;;;;;;;
2021/04/03 00:08:01;;;;;;;10.93;2.8;;;6;99.9;;;;;;;;;
2021/04/03 00:08:13;;;;;;;10.93;2.8;;;6;99.9;;;;;;;;;
2021/04/03 00:08:28;;;;;;;9.03;3.03;;;5.9;99.9;;;;;;;;;
2021/04/03 00:08:44;;;;;;;9.03;3.03;;;5.9;99.9;;;;;;;;;
2021/04/03 00:09:01;;;;;;;9.03;3.03;;;5.9;99.9;;;;;;;;;
2021/04/03 00:09:09;;;;;;;9.03;3.03;;;5.9;99.9;;;;;;;;;
2021/04/03 00:09:14;;;;;;;9.03;3.03;;;5.9;99.9;;;;;;;;;
2021/04/03 00:09:30;;;;;;;7.77;2.97;;;6;99.9;;;;;;;;;
2021/04/03 00:09:40;;;;;;;7.77;2.97;;;6;99.9;;;;;;;;;
2021/04/03 00:09:55;;;;;;;7.77;2.97;;;6;99.9;;;;;;;;;
2021/04/03 00:10:02;;;;;;;7.77;2.97;;;6;99.9;;;;;;;;;
2021/04/03 00:10:16;;;;;;;7.77;2.97;;;6;99.9;;;;;;;;;
2021/04/03 00:10:26;;;;;;;10.1;3.33;;;6;99.9;;;;;;;;;
2021/04/03 00:10:41;;;;;;;10.1;3.33;;;6;99.9;;;;;;;;;
2021/04/03 00:10:57;;;;;;;10.1;3.33;;;6;99.9;;;;;;;;;
2021/04/03 00:11:03;;;;;;;10.1;3.33;;;6;99.9;;;;;;;;;
2021/04/03 00:11:13;;;;;;;10.1;3.33;;;6;99.9;;;;;;;;;
2021/04/03 00:11:28;;;;;;;9.5;3.3;;;6;99.9;;;;;;;;;
2021/04/03 00:11:43;;;;;;;9.5;3.3;;;6;99.9;;;;;;;;;
2021/04/03 00:11:53;;;;;;;9.5;3.3;;;6;99.9;;;;;;;;;
2021/04/03 00:12:02;;;;;;;9.5;3.3;;;6;99.9;;;;;;;;;
2021/04/03 00:12:08;;;;;;;9.5;3.3;;;6;99.9;;;;;;;;;
2021/04/03 00:12:19;;;;;;;7.17;2.5;;;6;99.9;;;;;;;;;
2021/04/03 00:12:29;;;;;;;7.17;2.5;;;6;99.9;;;;;;;;;
2021/04/03 00:12:39;;;;;;;7.17;2.5;;;6;99.9;;;;;;;;;
2021/04/03 00:12:54;;;;;;;7.17;2.5;;;6;99.9;;;;;;;;;
2021/04/03 00:13:02;;;;;;;7.17;2.5;;;6;99.9;;;;;;;;;
2021/04/03 00:13:10;;;;;;;7.17;2.5;;;6;99.9;;;;;;;;;
2021/04/03 00:13:15;;;;;;;7.17;2.5;;;6;99.9;;;;;;;;;
2021/04/03 00:13:25;;;;;;;8.33;3.37;;;6.1;99.9;;;;;;;;;
2021/04/03 00:13:41;;;;;;;8.33;3.37;;;6.1;99.9;;;;;;;;;
2021/04/03 00:13:56;;;;;;;8.33;3.37;;;6.1;99.9;;;;;;;;;
2021/04/03 00:14:02;;;;;;;8.33;3.37;;;6.1;99.9;;;;;;;;;
2021/04/03 00:14:06;;;;;;;8.33;3.37;;;6.1;99.9;;;;;;;;;
2021/04/03 00:14:16;;;;;;;8.33;3.37;;;6.1;99.9;;;;;;;;;
2021/04/03 00:14:32;;;;;;;8.9;2.33;;;6.1;99.9;;;;;;;;;
2021/04/03 00:14:42;;;;;;;8.9;2.33;;;6.1;99.9;;;;;;;;;
2021/04/03 00:14:54;;;;;;;8.9;2.33;;;6.1;99.9;;;;;;;;;
2021/04/03 00:15:02;;;;;;;8.9;2.33;;;6.1;99.9;;;;;;;;;
2021/04/03 00:15:08;;;;;;;8.9;2.33;;;6.1;99.9;;;;;;;;;
2021/04/03 00:15:13;;;;;;;8.9;2.33;;;6.1;99.9;;;;;;;;;
2021/04/03 00:15:28;;;;;;;11.17;3.2;;;6.1;99.9;;;;;;;;;
2021/04/03 00:15:38;;;;;;;11.17;3.2;;;6.1;99.9;;;;;;;;;
2021/04/03 00:15:54;;;;;;;11.17;3.2;;;6.1;99.9;;;;;;;;;
2021/04/03 00:16:01;;;;;;;11.17;3.2;;;6.1;99.9;;;;;;;;;
2021/04/03 00:16:10;;;;;;;11.17;3.2;;;6.1;99.9;;;;;;;;;
2021/04/03 00:16:14;;;;;;;11.17;3.2;;;6.1;99.9;;;;;;;;;
2021/04/03 00:16:30;;;;;;;9.07;2.57;;;6.1;99.9;;;;;;;;;
2021/04/03 00:16:45;;;;;;;9.07;2.57;;;6.1;99.9;;;;;;;;;
2021/04/03 00:16:55;;;;;;;9.07;2.57;;;6.1;99.9;;;;;;;;;
2021/04/03 00:17:02;;;;;;;9.07;2.57;;;6.1;99.9;;;;;;;;;
2021/04/03 00:17:05;;;;;;;9.07;2.57;;;6.1;99.9;;;;;;;;;
2021/04/03 00:17:16;;;;;;;9.07;2.57;;;6.1;99.9;;;;;;;;;
2021/04/03 00:17:26;;;;;;;8.63;3.27;;;6.1;99.9;;;;;;;;;
2021/04/03 00:17:41;;;;;;;8.63;3.27;;;6.1;99.9;;;;;;;;;
2021/04/03 00:17:51;;;;;;;8.63;3.27;;;6.1;99.9;;;;;;;;;
2021/04/03 00:18:01;;;;;;;8.63;3.27;;;6.1;99.9;;;;;;;;;
2021/04/03 00:18:07;;;;;;;8.63;3.27;;;6.1;99.9;;;;;;;;;
2021/04/03 00:18:12;;;;;;;8.63;3.27;;;6.1;99.9;;;;;;;;;
2021/04/03 00:18:27;;;;;;;12.03;2.73;;;6.2;99.9;;;;;;;;;
2021/04/03 00:18:43;;;;;;;12.03;2.73;;;6.2;99.9;;;;;;;;;
2021/04/03 00:18:58;;;;;;;12.03;2.73;;;6.2;99.9;;;;;;;;;
2021/04/03 00:19:02;;;;;;;12.03;2.73;;;6.2;99.9;;;;;;;;;
2021/04/03 00:19:08;;;;;;;12.03;2.73;;;6.2;99.9;;;;;;;;;
2021/04/03 00:19:13;;;;;;;12.03;2.73;;;6.2;99.9;;;;;;;;;
2021/04/03 00:19:29;;;;;;;6.63;2.53;;;6.2;99.9;;;;;;;;;
2021/04/03 00:19:39;;;;;;;6.63;2.53;;;6.2;99.9;;;;;;;;;
2021/04/03 00:19:54;;;;;;;6.63;2.53;;;6.2;99.9;;;;;;;;;
2021/04/03 00:20:02;;;;;;;6.63;2.53;;;6.2;99.9;;;;;;;;;
2021/04/03 00:20:04;;;;;;;6.63;2.53;;;6.2;99.9;;;;;;;;;
2021/04/03 00:20:15;;;;;;;6.63;2.53;;;6.2;99.9;;;;;;;;;
2021/04/03 00:20:25;;;;;;;9;2.57;;;6.2;99.9;;;;;;;;;
2021/04/03 00:20:40;;;;;;;9;2.57;;;6.2;99.9;;;;;;;;;
2021/04/03 00:20:56;;;;;;;9;2.57;;;6.2;99.9;;;;;;;;;
2021/04/03 00:21:02;;;;;;;9;2.57;;;6.2;99.9;;;;;;;;;
2021/04/03 00:21:11;;;;;;;9;2.57;;;6.2;99.9;;;;;;;;;
2021/04/03 00:21:16;;;;;;;9;2.57;;;6.2;99.9;;;;;;;;;
2021/04/03 00:21:26;;;;;;;8.37;2.97;;;6.1;99.9;;;;;;;;;
2021/04/03 00:21:42;;;;;;;8.37;2.97;;;6.1;99.9;;;;;;;;;
2021/04/03 00:21:52;;;;;;;8.37;2.97;;;6.1;99.9;;;;;;;;;
2021/04/03 00:22:02;;;;;;;8.37;2.97;;;6.1;99.9;;;;;;;;;
2021/04/03 00:22:07;;;;;;;8.37;2.97;;;6.1;99.9;;;;;;;;;
2021/04/03 00:22:18;;;;;;;8.37;2.97;;;6.1;99.9;;;;;;;;;
2021/04/03 00:22:28;;;;;;;7;3.13;;;6.1;99.9;;;;;;;;;
2021/04/03 00:22:38;;;;;;;7;3.13;;;6.1;99.9;;;;;;;;;
2021/04/03 00:22:53;;;;;;;7;3.13;;;6.1;99.9;;;;;;;;;
2021/04/03 00:23:02;;;;;;;7;3.13;;;6.1;99.9;;;;;;;;;
2021/04/03 00:23:09;;;;;;;7;3.13;;;6.1;99.9;;;;;;;;;
2021/04/03 00:23:14;;;;;;;7;3.13;;;6.1;99.9;;;;;;;;;
2021/04/03 00:23:30;;;;;;;8.07;2.6;;;6;99.9;;;;;;;;;
2021/04/03 00:23:40;;;;;;;8.07;2.6;;;6;99.9;;;;;;;;;
2021/04/03 00:23:55;;;;;;;8.07;2.6;;;6;99.9;;;;;;;;;
2021/04/03 00:24:02;;;;;;;8.07;2.6;;;6;99.9;;;;;;;;;
2021/04/03 00:24:05;;;;;;;8.07;2.6;;;6;99.9;;;;;;;;;
2021/04/03 00:24:15;;;;;;;8.07;2.6;;;6;99.9;;;;;;;;;
2021/04/03 00:24:31;;;;;;;7.87;2.33;;;6;99.9;;;;;;;;;
2021/04/03 00:24:41;;;;;;;7.87;2.33;;;6;99.9;;;;;;;;;
2021/04/03 00:24:51;;;;;;;7.87;2.33;;;6;99.9;;;;;;;;;
2021/04/03 00:25:02;;;;;;;7.87;2.33;;;6;99.9;;;;;;;;;
2021/04/03 00:25:07;;;;;;;7.87;2.33;;;6;99.9;;;;;;;;;
2021/04/03 00:25:17;;;;;;;7.87;2.33;;;6;99.9;;;;;;;;;
2021/04/03 00:25:27;;;;;;;7.1;2.63;;;6;99.9;;;;;;;;;
2021/04/03 00:25:42;;;;;;;7.1;2.63;;;6;99.9;;;;;;;;;
2021/04/03 00:25:53;;;;;;;7.1;2.63;;;6;99.9;;;;;;;;;
2021/04/03 00:26:01;;;;;;;7.1;2.63;;;6;99.9;;;;;;;;;
2021/04/03 00:26:08;;;;;;;7.1;2.63;;;6;99.9;;;;;;;;;
2021/04/03 00:26:14;;;;;;;7.1;2.63;;;6;99.9;;;;;;;;;
2021/04/03 00:26:28;;;;;;;6.6;2.6;;;6;99.9;;;;;;;;;
2021/04/03 00:26:44;;;;;;;6.6;2.6;;;6;99.9;;;;;;;;;
2021/04/03 00:26:54;;;;;;;6.6;2.6;;;6;99.9;;;;;;;;;
2021/04/03 00:27:02;;;;;;;6.6;2.6;;;6;99.9;;;;;;;;;
2021/04/03 00:27:04;;;;;;;6.6;2.6;;;6;99.9;;;;;;;;;
2021/04/03 00:27:15;;;;;;;6.6;2.6;;;6;99.9;;;;;;;;;
2021/04/03 00:27:30;;;;;;;10.37;2.83;;;6;99.9;;;;;;;;;
2021/04/03 00:27:40;;;;;;;10.37;2.83;;;6;99.9;;;;;;;;;
2021/04/03 00:27:56;;;;;;;10.37;2.83;;;6;99.9;;;;;;;;;
2021/04/03 00:28:01;;;;;;;10.37;2.83;;;6;99.9;;;;;;;;;
2021/04/03 00:28:06;;;;;;;10.37;2.83;;;6;99.9;;;;;;;;;
2021/04/03 00:28:16;;;;;;;10.37;2.83;;;6;99.9;;;;;;;;;
2021/04/03 00:28:26;;;;;;;9.63;3.1;;;5.9;99.9;;;;;;;;;
2021/04/03 00:28:43;;;;;;;9.63;3.1;;;5.9;99.9;;;;;;;;;
2021/04/03 00:28:57;;;;;;;9.63;3.1;;;5.9;99.9;;;;;;;;;
2021/04/03 00:29:02;;;;;;;9.63;3.1;;;5.9;99.9;;;;;;;;;
2021/04/03 00:29:07;;;;;;;9.63;3.1;;;5.9;99.9;;;;;;;;;
2021/04/03 00:29:18;;;;;;;9.63;3.1;;;5.9;99.9;;;;;;;;;
2021/04/03 00:29:28;;;;;;;9.67;3.23;;;5.9;99.9;;;;;;;;;
2021/04/03 00:29:43;;;;;;;9.67;3.23;;;5.9;99.9;;;;;;;;;
2021/04/03 00:29:53;;;;;;;9.67;3.23;;;5.9;99.9;;;;;;;;;
2021/04/03 00:30:14;;;;;;;9.67;3.23;;;5.9;99.9;;;;;;;;;
2021/04/03 00:30:15;;;;;;;9.67;3.23;;;5.9;99.9;;;;;;;;;
2021/04/03 00:30:15;;;;;;;9.67;3.23;;;5.9;99.9;;;;;;;;;
2021/04/03 00:30:29;;;;;;;9.53;3.2;;;6;99.9;;;;;;;;;
2021/04/03 00:30:39;;;;;;;9.53;3.2;;;6;99.9;;;;;;;;;
2021/04/03 00:30:55;;;;;;;9.53;3.2;;;6;99.9;;;;;;;;;
2021/04/03 00:31:02;;;;;;;9.53;3.2;;;6;99.9;;;;;;;;;
2021/04/03 00:31:10;;;;;;;9.53;3.2;;;6;99.9;;;;;;;;;
2021/04/03 00:31:15;;;;;;;9.53;3.2;;;6;99.9;;;;;;;;;
2021/04/03 00:31:31;;;;;;;9.03;2.6;;;6;99.9;;;;;;;;;
2021/04/03 00:31:41;;;;;;;9.03;2.6;;;6;99.9;;;;;;;;;
2021/04/03 00:31:56;;;;;;;9.03;2.6;;;6;99.9;;;;;;;;;
2021/04/03 00:32:02;;;;;;;9.03;2.6;;;6;99.9;;;;;;;;;
2021/04/03 00:32:06;;;;;;;9.03;2.6;;;6;99.9;;;;;;;;;
2021/04/03 00:32:27;;;;;;;8.83;3.03;;;5.9;99.9;;;;;;;;;
2021/04/03 00:32:27;;;;;;;8.83;3.03;;;5.9;99.9;;;;;;;;;
2021/04/03 00:32:42;;;;;;;8.83;3.03;;;5.9;99.9;;;;;;;;;
2021/04/03 00:32:53;;;;;;;8.83;3.03;;;5.9;99.9;;;;;;;;;
2021/04/03 00:33:02;;;;;;;8.83;3.03;;;5.9;99.9;;;;;;;;;
2021/04/03 00:33:08;;;;;;;8.83;3.03;;;5.9;99.9;;;;;;;;;
2021/04/03 00:33:13;;;;;;;8.83;3.03;;;5.9;99.9;;;;;;;;;
2021/04/03 00:33:28;;;;;;;7.67;2.97;;;5.9;99.9;;;;;;;;;
2021/04/03 00:33:44;;;;;;;7.67;2.97;;;5.9;99.9;;;;;;;;;
2021/04/03 00:33:54;;;;;;;7.67;2.97;;;5.9;99.9;;;;;;;;;
2021/04/03 00:34:02;;;;;;;7.67;2.97;;;5.9;99.9;;;;;;;;;
2021/04/03 00:34:09;;;;;;;7.67;2.97;;;5.9;99.9;;;;;;;;;
2021/04/03 00:34:14;;;;;;;7.67;2.97;;;5.9;99.9;;;;;;;;;
2021/04/03 00:34:40;;;;;;;11.6;3.17;;;5.9;99.9;;;;;;;;;
2021/04/03 00:34:40;;;;;;;11.6;3.17;;;5.9;99.9;;;;;;;;;
2021/04/03 00:34:55;;;;;;;11.6;3.17;;;5.9;99.9;;;;;;;;;
2021/04/03 00:35:02;;;;;;;11.6;3.17;;;5.9;99.9;;;;;;;;;
2021/04/03 00:35:06;;;;;;;11.6;3.17;;;5.9;99.9;;;;;;;;;
2021/04/03 00:35:16;;;;;;;11.6;3.17;;;5.9;99.9;;;;;;;;;
2021/04/03 00:35:26;;;;;;;9.37;2.3;;;5.9;99.9;;;;;;;;;
2021/04/03 00:35:42;;;;;;;9.37;2.3;;;5.9;99.9;;;;;;;;;
2021/04/03 00:35:57;;;;;;;9.37;2.3;;;5.9;99.9;;;;;;;;;
2021/04/03 00:36:02;;;;;;;9.37;2.3;;;5.9;99.9;;;;;;;;;
2021/04/03 00:36:07;;;;;;;9.37;2.3;;;5.9;99.9;;;;;;;;;
2021/04/03 00:36:14;;;;;;;9.37;2.3;;;5.9;99.9;;;;;;;;;
2021/04/03 00:36:28;;;;;;;9.57;3.13;;;6;99.9;;;;;;;;;
2021/04/03 00:36:53;;;;;;;9.57;3.13;;;6;99.9;;;;;;;;;
2021/04/03 00:36:53;;;;;;;9.57;3.13;;;6;99.9;;;;;;;;;
2021/04/03 00:37:02;;;;;;;9.57;3.13;;;6;99.9;;;;;;;;;
2021/04/03 00:37:09;;;;;;;9.57;3.13;;;6;99.9;;;;;;;;;
2021/04/03 00:37:14;;;;;;;9.57;3.13;;;6;99.9;;;;;;;;;
2021/04/03 00:37:29;;;;;;;7.6;2.77;;;5.9;99.9;;;;;;;;;
2021/04/03 00:37:39;;;;;;;7.6;2.77;;;5.9;99.9;;;;;;;;;
2021/04/03 00:37:55;;;;;;;7.6;2.77;;;5.9;99.9;;;;;;;;;
2021/04/03 00:38:01;;;;;;;7.6;2.77;;;5.9;99.9;;;;;;;;;
2021/04/03 00:38:10;;;;;;;7.6;2.77;;;5.9;99.9;;;;;;;;;
2021/04/03 00:38:15;;;;;;;7.6;2.77;;;5.9;99.9;;;;;;;;;
2021/04/03 00:38:25;;;;;;;7.6;2.77;;;5.9;99.9;;;;;;;;;
2021/04/03 00:38:41;;;;;;;11.27;3.43;;;5.7;99.9;;;;;;;;;
2021/04/03 00:39:02;;;;;;;11.27;3.43;;;5.7;99.9;;;;;;;;;
2021/04/03 00:39:06;;;;;;;11.27;3.43;;;5.7;99.9;;;;;;;;;
2021/04/03 00:39:06;;;;;;;11.27;3.43;;;5.7;99.9;;;;;;;;;
2021/04/03 00:39:16;;;;;;;11.27;3.43;;;5.7;99.9;;;;;;;;;
2021/04/03 00:39:27;;;;;;;5.73;2.8;;;5.8;99.9;;;;;;;;;
2021/04/03 00:39:42;;;;;;;5.73;2.8;;;5.8;99.9;;;;;;;;;
2021/04/03 00:39:52;;;;;;;5.73;2.8;;;5.8;99.9;;;;;;;;;
2021/04/03 00:40:02;;;;;;;5.73;2.8;;;5.8;99.9;;;;;;;;;
2021/04/03 00:40:08;;;;;;;5.73;2.8;;;5.8;99.9;;;;;;;;;
2021/04/03 00:40:13;;;;;;;5.73;2.8;;;5.8;99.9;;;;;;;;;
2021/04/03 00:40:28;;;;;;;9.4;3.23;;;5.7;99.9;;;;;;;;;
2021/04/03 00:40:38;;;;;;;9.4;3.23;;;5.7;99.9;;;;;;;;;
2021/04/03 00:40:54;;;;;;;9.4;3.23;;;5.7;99.9;;;;;;;;;
2021/04/03 00:41:02;;;;;;;9.4;3.23;;;5.7;99.9;;;;;;;;;
2021/04/03 00:41:14;;;;;;;9.4;3.23;;;5.7;99.9;;;;;;;;;
2021/04/03 00:41:19;;;;;;;9.4;3.23;;;5.7;99.9;;;;;;;;;
2021/04/03 00:41:30;;;;;;;10.17;2.7;;;5.8;99.9;;;;;;;;;
2021/04/03 00:41:40;;;;;;;10.17;2.7;;;5.8;99.9;;;;;;;;;
2021/04/03 00:41:55;;;;;;;10.17;2.7;;;5.8;99.9;;;;;;;;;
2021/04/03 00:42:02;;;;;;;10.17;2.7;;;5.8;99.9;;;;;;;;;
2021/04/03 00:42:05;;;;;;;10.17;2.7;;;5.8;99.9;;;;;;;;;
2021/04/03 00:42:16;;;;;;;10.17;2.7;;;5.8;99.9;;;;;;;;;
2021/04/03 00:42:31;;;;;;;8.2;3.03;;;5.8;99.9;;;;;;;;;
2021/04/03 00:42:41;;;;;;;8.2;3.03;;;5.8;99.9;;;;;;;;;
2021/04/03 00:42:52;;;;;;;8.2;3.03;;;5.8;99.9;;;;;;;;;
2021/04/03 00:43:02;;;;;;;8.2;3.03;;;5.8;99.9;;;;;;;;;
2021/04/03 00:43:07;;;;;;;8.2;3.03;;;5.8;99.9;;;;;;;;;
2021/04/03 00:43:12;;;;;;;8.2;3.03;;;5.8;99.9;;;;;;;;;
2021/04/03 00:43:28;;;;;;;6.87;2.8;;;5.8;99.9;;;;;;;;;
2021/04/03 00:43:43;;;;;;;6.87;2.8;;;5.8;99.9;;;;;;;;;
2021/04/03 00:43:53;;;;;;;6.87;2.8;;;5.8;99.9;;;;;;;;;
2021/04/03 00:44:02;;;;;;;6.87;2.8;;;5.8;99.9;;;;;;;;;
2021/04/03 00:44:08;;;;;;;6.87;2.8;;;5.8;99.9;;;;;;;;;
2021/04/03 00:44:24;;;;;;;6.87;2.8;;;5.8;99.9;;;;;;;;;
2021/04/03 00:44:29;;;;;;;9.47;2.97;;;5.7;99.9;;;;;;;;;
2021/04/03 00:44:44;;;;;;;9.47;2.97;;;5.7;99.9;;;;;;;;;
2021/04/03 00:44:54;;;;;;;9.47;2.97;;;5.7;99.9;;;;;;;;;
2021/04/03 00:45:01;;;;;;;9.47;2.97;;;5.7;99.9;;;;;;;;;
2021/04/03 00:45:05;;;;;;;9.47;2.97;;;5.7;99.9;;;;;;;;;
2021/04/03 00:45:15;;;;;;;9.47;2.97;;;5.7;99.9;;;;;;;;;
2021/04/03 00:45:25;;;;;;;9.47;2.97;;;5.7;99.9;;;;;;;;;
2021/04/03 00:45:41;;;;;;;10.93;3.1;;;5.7;99.9;;;;;;;;;
2021/04/03 00:45:56;;;;;;;10.93;3.1;;;5.7;99.9;;;;;;;;;
2021/04/03 00:46:02;;;;;;;10.93;3.1;;;5.7;99.9;;;;;;;;;
2021/04/03 00:46:06;;;;;;;10.93;3.1;;;5.7;99.9;;;;;;;;;
2021/04/03 00:46:16;;;;;;;10.93;3.1;;;5.7;99.9;;;;;;;;;
2021/04/03 00:46:37;;;;;;;8.23;3.1;;;5.8;99.9;;;;;;;;;
2021/04/03 00:46:42;;;;;;;8.23;3.1;;;5.8;99.9;;;;;;;;;
2021/04/03 00:46:57;;;;;;;8.23;3.1;;;5.8;99.9;;;;;;;;;
2021/04/03 00:47:02;;;;;;;8.23;3.1;;;5.8;99.9;;;;;;;;;
2021/04/03 00:47:08;;;;;;;8.23;3.1;;;5.8;99.9;;;;;;;;;
2021/04/03 00:47:18;;;;;;;8.23;3.1;;;5.8;99.9;;;;;;;;;
2021/04/03 00:47:28;;;;;;;8.23;3.1;;;5.8;99.9;;;;;;;;;
2021/04/03 00:47:38;;;;;;;10.43;3.13;;;5.8;99.9;;;;;;;;;
2021/04/03 00:47:54;;;;;;;10.43;3.13;;;5.8;99.9;;;;;;;;;
2021/04/03 00:48:01;;;;;;;10.43;3.13;;;5.8;99.9;;;;;;;;;
2021/04/03 00:48:10;;;;;;;10.43;3.13;;;5.8;99.9;;;;;;;;;
2021/04/03 00:48:14;;;;;;;10.43;3.13;;;5.8;99.9;;;;;;;;;
2021/04/03 00:48:30;;;;;;;7.8;3.3;;;5.8;99.9;;;;;;;;;
2021/04/03 00:48:50;;;;;;;7.8;3.3;;;5.8;99.9;;;;;;;;;
2021/04/03 00:48:55;;;;;;;7.8;3.3;;;5.8;99.9;;;;;;;;;
2021/04/03 00:49:02;;;;;;;7.8;3.3;;;5.8;99.9;;;;;;;;;
2021/04/03 00:49:11;;;;;;;7.8;3.3;;;5.8;99.9;;;;;;;;;
2021/04/03 00:49:16;;;;;;;7.8;3.3;;;5.8;99.9;;;;;;;;;
2021/04/03 00:49:31;;;;;;;8.67;3.23;;;5.8;99.9;;;;;;;;;
2021/04/03 00:49:41;;;;;;;8.67;3.23;;;5.8;99.9;;;;;;;;;
2021/04/03 00:49:51;;;;;;;8.67;3.23;;;5.8;99.9;;;;;;;;;
2021/04/03 00:50:02;;;;;;;8.67;3.23;;;5.8;99.9;;;;;;;;;
2021/04/03 00:50:07;;;;;;;8.67;3.23;;;5.8;99.9;;;;;;;;;
2021/04/03 00:50:12;;;;;;;8.67;3.23;;;5.8;99.9;;;;;;;;;
2021/04/03 00:50:27;;;;;;;8.67;3.23;;;5.8;99.9;;;;;;;;;
2021/04/03 00:50:43;;;;;;;10.5;3.4;;;5.8;99.9;;;;;;;;;
2021/04/03 00:51:03;;;;;;;10.5;3.4;;;5.8;99.9;;;;;;;;;
2021/04/03 00:51:04;;;;;;;10.5;3.4;;;5.8;99.9;;;;;;;;;
2021/04/03 00:51:09;;;;;;;10.5;3.4;;;5.8;99.9;;;;;;;;;
2021/04/03 00:51:13;;;;;;;10.5;3.4;;;5.8;99.9;;;;;;;;;
2021/04/03 00:51:29;;;;;;;10.5;3.4;;;5.8;99.9;;;;;;;;;
2021/04/03 00:51:44;;;;;;;10.13;3.6;;;5.8;99.9;;;;;;;;;
2021/04/03 00:51:54;;;;;;;10.13;3.6;;;5.8;99.9;;;;;;;;;
2021/04/03 00:52:02;;;;;;;10.13;3.6;;;5.8;99.9;;;;;;;;;
2021/04/03 00:52:04;;;;;;;10.13;3.6;;;5.8;99.9;;;;;;;;;
2021/04/03 00:52:15;;;;;;;10.13;3.6;;;5.8;99.9;;;;;;;;;
2021/04/03 00:52:25;;;;;;;10.13;3.6;;;5.8;99.9;;;;;;;;;
2021/04/03 00:52:40;;;;;;;8.87;3.57;;;5.8;99.9;;;;;;;;;
2021/04/03 00:52:56;;;;;;;8.87;3.57;;;5.8;99.9;;;;;;;;;
2021/04/03 00:53:01;;;;;;;8.87;3.57;;;5.8;99.9;;;;;;;;;
2021/04/03 00:53:16;;;;;;;8.87;3.57;;;5.8;99.9;;;;;;;;;
2021/04/03 00:53:16;;;;;;;8.87;3.57;;;5.8;99.9;;;;;;;;;
2021/04/03 00:53:26;;;;;;;8.87;3.57;;;5.8;99.9;;;;;;;;;
2021/04/03 00:53:42;;;;;;;9.9;4;;;5.8;99.9;;;;;;;;;
2021/04/03 00:53:57;;;;;;;9.9;4;;;5.8;99.9;;;;;;;;;
2021/04/03 00:54:02;;;;;;;9.9;4;;;5.8;99.9;;;;;;;;;
2021/04/03 00:54:07;;;;;;;9.9;4;;;5.8;99.9;;;;;;;;;
2021/04/03 00:54:18;;;;;;;9.9;4;;;5.8;99.9;;;;;;;;;
2021/04/03 00:54:28;;;;;;;9.9;4;;;5.8;99.9;;;;;;;;;
2021/04/03 00:54:38;;;;;;;9.67;3.7;;;5.8;99.9;;;;;;;;;
2021/04/03 00:54:53;;;;;;;9.67;3.7;;;5.8;99.9;;;;;;;;;
2021/04/03 00:55:02;;;;;;;9.67;3.7;;;5.8;99.9;;;;;;;;;
2021/04/03 00:55:09;;;;;;;9.67;3.7;;;5.8;99.9;;;;;;;;;
2021/04/03 00:55:14;;;;;;;9.67;3.7;;;5.8;99.9;;;;;;;;;
2021/04/03 00:55:34;;;;;;;7.13;2.97;;;5.8;99.9;;;;;;;;;
2021/04/03 00:55:40;;;;;;;7.13;2.97;;;5.8;99.9;;;;;;;;;
2021/04/03 00:55:55;;;;;;;7.13;2.97;;;5.8;99.9;;;;;;;;;
2021/04/03 00:56:02;;;;;;;7.13;2.97;;;5.8;99.9;;;;;;;;;
2021/04/03 00:56:10;;;;;;;7.13;2.97;;;5.8;99.9;;;;;;;;;
2021/04/03 00:56:15;;;;;;;7.13;2.97;;;5.8;99.9;;;;;;;;;
2021/04/03 00:56:31;;;;;;;7.13;2.97;;;5.8;99.9;;;;;;;;;
2021/04/03 00:56:41;;;;;;;8.13;3;;;5.9;99.9;;;;;;;;;
2021/04/03 00:56:51;;;;;;;8.13;3;;;5.9;99.9;;;;;;;;;
2021/04/03 00:57:02;;;;;;;8.13;3;;;5.9;99.9;;;;;;;;;
2021/04/03 00:57:07;;;;;;;8.13;3;;;5.9;99.9;;;;;;;;;
2021/04/03 00:57:17;;;;;;;8.13;3;;;5.9;99.9;;;;;;;;;
2021/04/03 00:57:27;;;;;;;8.13;3;;;5.9;99.9;;;;;;;;;
2021/04/03 00:57:48;;;;;;;13.87;3.83;;;5.9;99.9;;;;;;;;;
2021/04/03 00:57:53;;;;;;;13.87;3.83;;;5.9;99.9;;;;;;;;;
2021/04/03 00:58:01;;;;;;;13.87;3.83;;;5.9;99.9;;;;;;;;;
2021/04/03 00:58:08;;;;;;;13.87;3.83;;;5.9;99.9;;;;;;;;;
2021/04/03 00:58:13;;;;;;;13.87;3.83;;;5.9;99.9;;;;;;;;;
2021/04/03 00:58:29;;;;;;;13.87;3.83;;;5.9;99.9;;;;;;;;;
2021/04/03 00:58:44;;;;;;;13.7;3.33;;;5.9;99.9;;;;;;;;;
2021/04/03 00:58:54;;;;;;;13.7;3.33;;;5.9;99.9;;;;;;;;;
2021/04/03 00:59:02;;;;;;;13.7;3.33;;;5.9;99.9;;;;;;;;;
2021/04/03 00:59:04;;;;;;;13.7;3.33;;;5.9;99.9;;;;;;;;;
2021/04/03 00:59:15;;;;;;;13.7;3.33;;;5.9;99.9;;;;;;;;;
2021/04/03 00:59:30;;;;;;;13.7;3.33;;;5.9;99.9;;;;;;;;;
2021/04/03 00:59:40;;;;;;;9.9;3.2;;;5.9;99.9;;;;;;;;;
2021/04/03 01:00:01;;;;;;;9.9;3.2;;;5.9;99.9;;;;;;;;;
2021/04/03 01:00:01;;;;;;;9.9;3.2;;;5.9;99.9;;;;;;;;;
2021/04/03 01:00:06;;;;;;;9.9;3.2;;;5.9;99.9;;;;;;;;;
2021/04/03 01:00:16;;;;;;;9.9;3.2;;;5.9;99.9;;;;;;;;;
2021/04/03 01:00:26;;;;;;;9.9;3.2;;;5.9;99.9;;;;;;;;;
2021/04/03 01:00:42;;;;;;;8.9;3.5;;;5.9;99.9;;;;;;;;;
2021/04/03 01:00:57;;;;;;;8.9;3.5;;;5.9;99.9;;;;;;;;;
2021/04/03 01:01:02;;;;;;;8.9;3.5;;;5.9;99.9;;;;;;;;;
2021/04/03 01:01:07;;;;;;;8.9;3.5;;;5.9;99.9;;;;;;;;;
2021/04/03 01:01:12;;;;;;;8.9;3.5;;;5.9;99.9;;;;;;;;;
2021/04/03 01:01:28;;;;;;;8.9;3.5;;;5.9;99.9;;;;;;;;;
2021/04/03 01:01:43;;;;;;;8.1;2.93;;;6;99.9;;;;;;;;;
2021/04/03 01:01:53;;;;;;;8.1;2.93;;;6;99.9;;;;;;;;;
2021/04/03 01:02:02;;;;;;;8.1;2.93;;;6;99.9;;;;;;;;;
2021/04/03 01:02:14;;;;;;;8.1;2.93;;;6;99.9;;;;;;;;;
2021/04/03 01:02:14;;;;;;;8.1;2.93;;;6;99.9;;;;;;;;;
2021/04/03 01:02:29;;;;;;;8.1;2.93;;;6;99.9;;;;;;;;;
2021/04/03 01:02:39;;;;;;;8.9;3.3;;;6;99.9;;;;;;;;;
2021/04/03 01:02:55;;;;;;;8.9;3.3;;;6;99.9;;;;;;;;;
2021/04/03 01:03:01;;;;;;;8.9;3.3;;;6;99.9;;;;;;;;;
2021/04/03 01:03:10;;;;;;;8.9;3.3;;;6;99.9;;;;;;;;;
2021/04/03 01:03:15;;;;;;;8.9;3.3;;;6;99.9;;;;;;;;;
2021/04/03 01:03:26;;;;;;;8.9;3.3;;;6;99.9;;;;;;;;;
2021/04/03 01:03:41;;;;;;;11.5;3.43;;;6;99.9;;;;;;;;;
2021/04/03 01:03:56;;;;;;;11.5;3.43;;;6;99.9;;;;;;;;;
2021/04/03 01:04:02;;;;;;;11.5;3.43;;;6;99.9;;;;;;;;;
2021/04/03 01:04:06;;;;;;;11.5;3.43;;;6;99.9;;;;;;;;;
2021/04/03 01:04:17;;;;;;;11.5;3.43;;;6;99.9;;;;;;;;;
2021/04/03 01:04:27;;;;;;;11.5;3.43;;;6;99.9;;;;;;;;;
2021/04/03 01:04:42;;;;;;;11.53;3.4;;;5.9;99.9;;;;;;;;;
2021/04/03 01:04:53;;;;;;;11.53;3.4;;;5.9;99.9;;;;;;;;;
2021/04/03 01:05:01;;;;;;;11.53;3.4;;;5.9;99.9;;;;;;;;;
2021/04/03 01:05:08;;;;;;;11.53;3.4;;;5.9;99.9;;;;;;;;;
2021/04/03 01:05:13;;;;;;;11.53;3.4;;;5.9;99.9;;;;;;;;;
2021/04/03 01:05:28;;;;;;;11.53;3.4;;;5.9;99.9;;;;;;;;;
2021/04/03 01:05:39;;;;;;;10.53;2.9;;;6;99.9;;;;;;;;;
2021/04/03 01:05:54;;;;;;;10.53;2.9;;;6;99.9;;;;;;;;;
2021/04/03 01:06:02;;;;;;;10.53;2.9;;;6;99.9;;;;;;;;;
2021/04/03 01:06:09;;;;;;;10.53;2.9;;;6;99.9;;;;;;;;;
2021/04/03 01:06:14;;;;;;;10.53;2.9;;;6;99.9;;;;;;;;;
2021/04/03 01:06:30;;;;;;;10.53;2.9;;;6;99.9;;;;;;;;;
2021/04/03 01:06:40;;;;;;;9.5;3.33;;;6;99.9;;;;;;;;;
2021/04/03 01:06:55;;;;;;;9.5;3.33;;;6;99.9;;;;;;;;;
2021/04/03 01:07:02;;;;;;;9.5;3.33;;;6;99.9;;;;;;;;;
2021/04/03 01:07:06;;;;;;;9.5;3.33;;;6;99.9;;;;;;;;;
2021/04/03 01:07:16;;;;;;;9.5;3.33;;;6;99.9;;;;;;;;;
2021/04/03 01:07:26;;;;;;;9.5;3.33;;;6;99.9;;;;;;;;;
2021/04/03 01:07:41;;;;;;;13.9;2.93;;;6;99.9;;;;;;;;;
2021/04/03 01:07:52;;;;;;;13.9;2.93;;;6;99.9;;;;;;;;;
2021/04/03 01:08:02;;;;;;;13.9;2.93;;;6;99.9;;;;;;;;;
2021/04/03 01:08:07;;;;;;;13.9;2.93;;;6;99.9;;;;;;;;;
2021/04/03 01:08:17;;;;;;;13.9;2.93;;;6;99.9;;;;;;;;;
2021/04/03 01:08:27;;;;;;;13.9;2.93;;;6;99.9;;;;;;;;;
2021/04/03 01:08:43;;;;;;;11.13;3.2;;;6;99.9;;;;;;;;;
2021/04/03 01:08:53;;;;;;;11.13;3.2;;;6;99.9;;;;;;;;;
2021/04/03 01:09:02;;;;;;;11.13;3.2;;;6;99.9;;;;;;;;;
2021/04/03 01:09:10;;;;;;;11.13;3.2;;;6;99.9;;;;;;;;;
2021/04/03 01:09:14;;;;;;;11.13;3.2;;;6;99.9;;;;;;;;;
2021/04/03 01:09:29;;;;;;;11.13;3.2;;;6;99.9;;;;;;;;;
2021/04/03 01:09:39;;;;;;;12.13;3.5;;;6;99.9;;;;;;;;;
2021/04/03 01:09:55;;;;;;;12.13;3.5;;;6;99.9;;;;;;;;;
2021/04/03 01:10:01;;;;;;;12.13;3.5;;;6;99.9;;;;;;;;;
2021/04/03 01:10:05;;;;;;;12.13;3.5;;;6;99.9;;;;;;;;;
2021/04/03 01:10:15;;;;;;;12.13;3.5;;;6;99.9;;;;;;;;;
2021/04/03 01:10:31;;;;;;;12.13;3.5;;;6;99.9;;;;;;;;;
2021/04/03 01:10:41;;;;;;;10.83;3.53;;;6;99.9;;;;;;;;;
2021/04/03 01:10:56;;;;;;;10.83;3.53;;;6;99.9;;;;;;;;;
2021/04/03 01:11:02;;;;;;;10.83;3.53;;;6;99.9;;;;;;;;;
2021/04/03 01:11:06;;;;;;;10.83;3.53;;;6;99.9;;;;;;;;;
2021/04/03 01:11:16;;;;;;;10.83;3.53;;;6;99.9;;;;;;;;;
2021/04/03 01:11:27;;;;;;;10.83;3.53;;;6;99.9;;;;;;;;;
2021/04/03 01:11:47;;;;;;;10.43;3.23;;;6.1;99.9;;;;;;;;;
2021/04/03 01:11:52;;;;;;;10.43;3.23;;;6.1;99.9;;;;;;;;;
2021/04/03 01:12:02;;;;;;;10.43;3.23;;;6.1;99.9;;;;;;;;;
2021/04/03 01:12:08;;;;;;;10.43;3.23;;;6.1;99.9;;;;;;;;;
2021/04/03 01:12:13;;;;;;;10.43;3.23;;;6.1;99.9;;;;;;;;;
2021/04/03 01:12:28;;;;;;;10.43;3.23;;;6.1;99.9;;;;;;;;;
2021/04/03 01:12:44;;;;;;;11.23;2.63;;;6;99.9;;;;;;;;;
2021/04/03 01:12:54;;;;;;;11.23;2.63;;;6;99.9;;;;;;;;;
2021/04/03 01:13:01;;;;;;;11.23;2.63;;;6;99.9;;;;;;;;;
2021/04/03 01:13:09;;;;;;;11.23;2.63;;;6;99.9;;;;;;;;;
2021/04/03 01:13:14;;;;;;;11.23;2.63;;;6;99.9;;;;;;;;;
2021/04/03 01:13:30;;;;;;;11.23;2.63;;;6;99.9;;;;;;;;;
2021/04/03 01:13:40;;;;;;;6.8;2.7;;;5.9;99.9;;;;;;;;;
2021/04/03 01:14:02;;;;;;;6.8;2.7;;;5.9;99.9;;;;;;;;;
2021/04/03 01:14:16;;;;;;;6.8;2.7;;;5.9;99.9;;;;;;;;;
2021/04/03 01:14:21;;;;;;;6.8;2.7;;;5.9;99.9;;;;;;;;;
2021/04/03 01:14:21;;;;;;;6.8;2.7;;;5.9;99.9;;;;;;;;;
2021/04/03 01:14:31;;;;;;;6.8;2.7;;;5.9;99.9;;;;;;;;;
2021/04/03 01:14:41;;;;;;;10.83;2.83;;;5.9;99.9;;;;;;;;;
2021/04/03 01:15:01;;;;;;;10.83;2.83;;;5.9;99.9;;;;;;;;;
2021/04/03 01:15:07;;;;;;;10.83;2.83;;;5.9;99.9;;;;;;;;;
2021/04/03 01:15:07;;;;;;;10.83;2.83;;;5.9;99.9;;;;;;;;;
2021/04/03 01:15:27;;;;;;;10.83;2.83;;;5.9;99.9;;;;;;;;;
2021/04/03 01:15:43;;;;;;;8.43;2.27;;;5.9;99.9;;;;;;;;;
2021/04/03 01:15:53;;;;;;;8.43;2.27;;;5.9;99.9;;;;;;;;;
2021/04/03 01:15:58;;;;;;;8.43;2.27;;;5.9;99.9;;;;;;;;;
2021/04/03 01:16:02;;;;;;;8.43;2.27;;;5.9;99.9;;;;;;;;;
2021/04/03 01:16:19;;;;;;;8.43;2.27;;;5.9;99.9;;;;;;;;;
2021/04/03 01:16:29;;;;;;;8.43;2.27;;;5.9;99.9;;;;;;;;;
2021/04/03 01:16:34;;;;;;;8.43;2.27;;;5.9;99.9;;;;;;;;;
2021/04/03 01:16:44;;;;;;;5.07;2.47;;;6;99.9;;;;;;;;;
2021/04/03 01:16:54;;;;;;;5.07;2.47;;;6;99.9;;;;;;;;;
2021/04/03 01:17:02;;;;;;;5.07;2.47;;;6;99.9;;;;;;;;;
2021/04/03 01:17:20;;;;;;;5.07;2.47;;;6;99.9;;;;;;;;;
2021/04/03 01:17:25;;;;;;;5.07;2.47;;;6;99.9;;;;;;;;;